Time;durP1;ratioP1;P1;durP2;ratioP2;P2;SDS_P1;SDS_P2;PMS_P1;PMS_P2;Temp;Humidity;BMP_temperature;BMP_pressure;BME280_temperature;BME280_humidity;BME280_pressure;Samples;Min_cycle;Max_cycle;Signal;HPM_P1;HPM_P2
2023/03/24 00:01:26;;;;;;;1.93;1.83;;;12.10;99.90;;;-141.84;69.08;19917.50;5068202;28;20200;-56
2023/03/24 00:03:54;;;;;;;1.70;1.60;;;12.10;99.90;;;-141.84;69.59;19899.19;5068229;28;20258;-54
2023/03/24 00:06:25;;;;;;;2.07;1.70;;;12.10;99.90;;;-141.84;69.96;19899.19;5069397;28;20715;-57
2023/03/24 00:08:53;;;;;;;2.73;1.90;;;12.00;99.90;;;-141.84;69.82;19899.19;5069840;28;20235;-56
2023/03/24 00:11:25;;;;;;;2.27;1.70;;;12.00;99.90;;;-141.84;68.93;19915.47;5069685;28;20789;-53
2023/03/24 00:13:57;;;;;;;2.53;1.80;;;12.00;99.90;;;-141.84;69.27;19925.63;5070696;28;20276;-55
2023/03/24 00:16:25;;;;;;;2.60;1.90;;;12.00;99.90;;;-141.84;68.92;19899.19;5069996;28;20208;-58
2023/03/24 00:18:54;;;;;;;2.23;1.70;;;12.10;99.90;;;-141.84;69.28;19897.16;5069918;28;20308;-56
2023/03/24 00:21:25;;;;;;;1.70;1.60;;;12.10;99.90;;;-141.84;69.04;19937.81;5069542;28;20235;-56
2023/03/24 00:23:57;;;;;;;1.67;1.57;;;12.10;99.90;;;-141.84;68.99;19915.47;5069971;28;20228;-56
2023/03/24 00:26:27;;;;;;;2.37;1.90;;;12.00;99.90;;;-141.84;69.46;19870.75;5069950;28;20225;-55
2023/03/24 00:28:55;;;;;;;2.83;2.00;;;12.00;99.90;;;-141.84;69.33;19917.50;5070468;28;20619;-57
2023/03/24 00:31:25;;;;;;;2.17;2.03;;;12.00;99.90;;;-141.84;69.16;19950.00;5069877;28;20629;-55
2023/03/24 00:33:54;;;;;;;2.13;1.93;;;11.90;99.90;;;-141.84;69.01;19923.59;5069844;28;20278;-56
2023/03/24 00:36:25;;;;;;;2.10;1.93;;;12.00;99.90;;;-141.84;69.62;19854.50;5069540;28;20250;-55
2023/03/24 00:38:54;;;;;;;2.47;2.23;;;11.90;99.90;;;-141.84;70.36;19878.88;5069762;28;20225;-58
2023/03/24 00:41:25;;;;;;;2.93;2.20;;;11.90;99.90;;;-141.84;70.73;19880.91;5069791;28;20220;-56
2023/03/24 00:43:58;;;;;;;3.17;2.40;;;11.80;99.90;;;-141.84;69.21;19925.63;5070384;28;20255;-55
2023/03/24 00:46:27;;;;;;;3.40;2.30;;;11.90;99.90;;;-141.84;68.99;19905.28;5069946;28;20255;-56
2023/03/24 00:49:01;;;;;;;3.37;2.70;;;12.00;99.90;;;-141.84;68.69;19903.25;5069639;28;20228;-55
2023/03/24 00:51:33;;;;;;;3.03;2.10;;;12.00;99.90;;;-141.84;68.78;19901.22;5071883;28;20708;-56
2023/03/24 00:54:02;;;;;;;3.43;2.40;;;12.00;99.90;;;-141.84;68.29;19954.06;5073176;28;20223;-56
2023/03/24 00:56:32;;;;;;;2.50;2.30;;;12.10;99.90;;;-141.84;68.71;19919.53;5073328;28;20221;-55
2023/03/24 00:59:02;;;;;;;2.50;2.30;;;12.10;99.90;;;-141.84;69.05;19941.88;5073287;28;20204;-56
2023/03/24 01:01:35;;;;;;;3.63;2.50;;;12.10;99.90;;;-141.84;68.83;19919.53;5073709;28;20205;-54
2023/03/24 01:04:05;;;;;;;2.80;2.60;;;12.10;99.90;;;-141.84;69.28;19939.84;5070750;28;20224;-56
2023/03/24 01:06:36;;;;;;;2.60;2.40;;;12.10;99.90;;;-141.84;69.16;19923.59;5072929;28;20224;-57
2023/03/24 01:09:06;;;;;;;3.07;2.87;;;12.10;99.90;;;-141.84;69.55;19907.31;5072918;28;20740;-55
2023/03/24 01:11:38;;;;;;;4.83;2.50;;;12.00;99.90;;;-141.84;68.86;19956.09;5053013;28;20233;-58
2023/03/24 01:14:10;;;;;;;3.27;2.77;;;12.10;99.90;;;-141.84;69.49;19925.63;5053334;28;20182;-55
2023/03/24 01:16:38;;;;;;;4.13;3.23;;;12.10;99.90;;;-141.84;69.38;19941.88;5053603;28;20554;-57
2023/03/24 01:19:08;;;;;;;4.97;2.83;;;12.10;99.90;;;-141.84;69.08;19941.88;5052858;28;20318;-57
2023/03/24 01:21:38;;;;;;;3.43;3.00;;;12.10;99.90;;;-141.84;69.50;19939.84;5052225;28;20240;-55
2023/03/24 01:24:07;;;;;;;6.53;2.90;;;12.20;99.90;;;-141.84;70.55;19943.91;5052808;28;20231;-54
2023/03/24 01:26:36;;;;;;;4.23;3.40;;;12.20;99.90;;;-141.84;71.71;19899.19;5052853;28;20280;-57
2023/03/24 01:29:05;;;;;;;4.03;3.40;;;12.10;99.90;;;-141.84;72.53;19899.19;5068165;28;20687;-56
2023/03/24 01:31:35;;;;;;;5.93;3.30;;;12.10;99.90;;;-141.84;72.49;19927.66;5072975;28;20571;-55
2023/03/24 01:34:04;;;;;;;3.67;3.30;;;12.10;99.90;;;-141.84;72.25;19901.22;5072479;28;20783;-54
2023/03/24 01:36:32;;;;;;;3.47;3.17;;;12.10;99.90;;;-141.84;72.97;19911.41;5072479;28;20228;-55
2023/03/24 01:39:00;;;;;;;4.60;3.30;;;12.10;99.90;;;-141.84;73.92;19870.75;5072603;28;20227;-57
2023/03/24 01:41:34;;;;;;;3.80;3.50;;;12.00;99.90;;;-141.84;74.26;19878.88;5072819;28;20247;-55
2023/03/24 01:44:27;;;;;;;4.00;3.37;;;12.00;99.90;;;-141.84;74.52;19860.59;5072341;28;20184;-55
2023/03/24 01:46:57;;;;;;;4.10;3.37;;;12.00;99.90;;;-141.84;74.43;19870.75;5073153;28;20188;-57
2023/03/24 01:49:32;;;;;;;5.53;3.70;;;12.10;99.90;;;-141.84;74.74;19876.84;5072618;28;20221;-55
2023/03/24 01:52:05;;;;;;;3.57;3.27;;;12.00;99.90;;;-141.84;74.91;19856.53;5072248;28;20239;-58
2023/03/24 01:54:41;;;;;;;4.63;3.80;;;12.00;99.90;;;-141.84;74.02;19878.88;5072456;28;20236;-55
2023/03/24 01:57:14;;;;;;;4.20;3.60;;;12.10;99.90;;;-141.84;73.95;19868.72;5072391;28;20220;-56
2023/03/24 01:59:49;;;;;;;4.90;3.50;;;12.10;99.90;;;-141.84;73.47;19923.59;5067158;28;20220;-58
2023/03/24 02:02:20;;;;;;;5.07;3.73;;;12.20;99.90;;;-141.84;73.17;19907.31;5070803;28;20243;-56
2023/03/24 02:04:53;;;;;;;4.77;3.50;;;12.20;99.90;;;-141.84;73.18;19909.34;5072736;28;20227;-56
2023/03/24 02:07:32;;;;;;;5.50;3.60;;;12.20;99.90;;;-141.84;72.64;19911.41;5072118;28;20216;-54
2023/03/24 02:10:04;;;;;;;4.00;3.60;;;12.20;99.90;;;-141.84;72.18;19952.03;5072030;28;20220;-55
2023/03/24 02:12:33;;;;;;;4.30;3.73;;;12.30;99.90;;;-141.84;71.78;19921.56;5071866;28;20286;-56
2023/03/24 02:15:04;;;;;;;5.73;4.03;;;12.30;99.90;;;-141.84;71.50;19927.66;5071929;28;20602;-56
2023/03/24 02:18:01;;;;;;;4.47;3.80;;;12.40;99.90;;;-141.84;71.00;19956.09;5071917;28;20767;-57
2023/03/24 02:21:23;;;;;;;4.60;3.70;;;12.50;99.90;;;-141.84;71.66;19943.91;5071831;28;20307;-56
2023/03/24 02:24:35;;;;;;;3.97;3.57;;;12.50;99.90;;;-141.84;72.13;19911.41;5071643;28;20228;-55
2023/03/24 02:27:22;;;;;;;3.83;3.43;;;12.40;99.90;;;-141.84;72.38;19921.56;5058922;28;20223;-58
2023/03/24 02:30:31;;;;;;;4.50;3.93;;;12.40;99.90;;;-141.84;73.00;19911.41;5067828;28;20224;-58
2023/03/24 02:33:53;;;;;;;5.00;3.90;;;12.30;99.90;;;-141.84;73.21;19931.72;5071475;28;20228;-57
2023/03/24 02:37:13;;;;;;;3.87;3.53;;;12.40;99.90;;;-141.84;73.85;19939.84;5056126;28;20236;-56
2023/03/24 02:40:11;;;;;;;5.77;4.47;;;12.30;99.90;;;-141.84;75.61;19864.66;5051189;28;20228;-57
2023/03/24 02:42:54;;;;;;;6.07;4.23;;;12.20;99.90;;;-141.84;76.69;19860.59;5049495;28;20228;-54
2023/03/24 02:45:30;;;;;;;4.77;3.93;;;12.10;99.90;;;-141.84;77.28;19870.75;5071431;28;20235;-58
2023/03/24 02:48:20;;;;;;;5.00;4.53;;;12.10;99.90;;;-141.84;77.42;19895.13;5071235;28;20263;-55
2023/03/24 02:50:57;;;;;;;4.33;3.90;;;12.10;99.90;;;-141.84;78.94;19811.81;5071170;28;20220;-56
2023/03/24 02:53:33;;;;;;;5.70;4.10;;;11.90;99.90;;;-141.84;79.94;19811.81;5071025;28;20231;-55
2023/03/24 02:56:11;;;;;;;4.97;4.13;;;11.80;99.90;;;-141.84;80.05;19777.25;5070599;28;20211;-56
2023/03/24 02:58:49;;;;;;;4.57;4.17;;;11.70;99.90;;;-141.84;81.52;19734.56;5071366;28;20676;-55
2023/03/24 03:01:30;;;;;;;6.43;4.67;;;11.60;99.90;;;-141.84;82.84;19742.72;5070840;28;20228;-56
2023/03/24 03:04:07;;;;;;;6.00;4.87;;;11.50;99.90;;;-141.84;82.09;19809.78;5070885;28;20221;-55
2023/03/24 03:06:39;;;;;;;5.37;4.93;;;11.60;99.90;;;-141.84;82.73;19756.94;5070756;28;20231;-58
2023/03/24 03:09:14;;;;;;;5.10;4.57;;;11.50;99.90;;;-141.84;83.29;19758.97;5070521;28;20216;-57
2023/03/24 03:11:49;;;;;;;7.23;5.23;;;11.50;99.90;;;-141.84;83.59;19732.53;5070907;28;20232;-55
2023/03/24 03:14:27;;;;;;;5.27;4.77;;;11.50;99.90;;;-141.84;83.36;19761.00;5070261;28;20727;-58
2023/03/24 03:17:03;;;;;;;6.33;4.80;;;11.50;99.90;;;-141.84;83.52;19750.84;5071449;28;20189;-58
2023/03/24 03:19:37;;;;;;;5.07;4.23;;;11.50;99.90;;;-141.84;83.57;19758.97;5070716;28;20209;-58
2023/03/24 03:22:15;;;;;;;5.53;4.73;;;11.50;99.90;;;-141.84;83.93;19744.75;5070312;28;20224;-58
2023/03/24 03:24:51;;;;;;;5.43;4.93;;;11.50;99.90;;;-141.84;84.31;19716.28;5070371;28;20232;-56
2023/03/24 03:27:28;;;;;;;5.10;4.60;;;11.50;99.90;;;-141.84;83.14;19781.31;5070771;28;20327;-56
2023/03/24 03:30:03;;;;;;;4.93;4.20;;;11.60;99.90;;;-141.84;82.61;19767.09;5070425;28;20224;-58
2023/03/24 03:32:37;;;;;;;4.93;4.30;;;11.60;99.90;;;-141.84;82.39;19785.38;5070412;28;20228;-55
2023/03/24 03:35:14;;;;;;;5.63;4.23;;;11.60;99.90;;;-141.84;81.61;19787.41;5070373;28;20189;-57
2023/03/24 03:37:53;;;;;;;4.43;4.03;;;11.80;99.90;;;-141.84;81.27;19801.66;5063018;28;20200;-57
2023/03/24 03:40:27;;;;;;;5.77;4.40;;;11.80;99.90;;;-141.84;81.61;19750.84;5050633;28;20732;-58
2023/03/24 03:42:58;;;;;;;4.87;4.37;;;11.80;99.90;;;-141.84;81.84;19781.31;5050376;28;20736;-57
2023/03/24 03:45:26;;;;;;;5.50;3.97;;;11.80;99.90;;;-141.84;81.08;19791.47;5050380;28;20225;-56
2023/03/24 03:47:55;;;;;;;4.70;4.20;;;11.90;99.90;;;-141.84;82.15;19754.91;5050449;28;20627;-56
2023/03/24 03:50:23;;;;;;;4.20;3.80;;;11.80;99.90;;;-141.84;82.19;19769.13;5050110;28;20251;-57
2023/03/24 03:52:52;;;;;;;5.37;4.27;;;11.80;99.90;;;-141.84;82.36;19777.25;5070825;28;20232;-56
2023/03/24 03:55:21;;;;;;;4.23;3.83;;;11.70;99.90;;;-141.84;82.55;19777.25;5070009;28;20229;-56
2023/03/24 03:57:50;;;;;;;4.77;3.90;;;11.70;99.90;;;-141.84;82.02;19756.94;5070205;28;20243;-57
2023/03/24 04:00:21;;;;;;;4.30;3.90;;;11.80;99.90;;;-141.84;81.77;19785.38;5069868;28;20217;-56
2023/03/24 04:03:16;;;;;;;4.83;4.00;;;11.80;99.90;;;-141.84;81.25;19787.41;5070374;28;20232;-57
2023/03/24 04:05:53;;;;;;;3.80;3.50;;;11.80;99.90;;;-141.84;80.27;19787.41;5069699;28;20225;-60
2023/03/24 04:08:37;;;;;;;4.90;3.80;;;11.90;99.90;;;-141.84;80.84;19797.59;5070189;28;20251;-56
2023/03/24 04:11:36;;;;;;;5.30;4.20;;;11.80;99.90;;;-141.84;80.61;19769.13;5070136;28;20196;-54
2023/03/24 04:14:56;;;;;;;4.27;3.83;;;11.90;99.90;;;-141.84;79.42;19797.59;5070170;28;20230;-58
2023/03/24 04:17:50;;;;;;;5.90;5.37;;;11.90;99.90;;;-141.84;79.33;19795.53;5069884;28;20224;-55
2023/03/24 04:20:31;;;;;;;5.43;4.20;;;12.00;99.90;;;-141.84;80.67;19771.16;5069620;28;20771;-57
2023/03/24 04:23:13;;;;;;;4.33;3.93;;;11.90;99.90;;;-141.84;81.02;19769.13;5069915;28;20379;-56
2023/03/24 04:25:55;;;;;;;4.70;4.30;;;11.90;99.90;;;-141.84;79.22;19850.41;5071825;28;20232;-57
2023/03/24 04:28:33;;;;;;;5.33;3.87;;;12.00;99.90;;;-141.84;79.74;19793.50;5073984;28;20731;-56
2023/03/24 04:31:13;;;;;;;6.27;4.23;;;12.00;99.90;;;-141.84;80.73;19783.34;5073707;28;20617;-55
2023/03/24 04:33:50;;;;;;;4.30;3.90;;;11.90;99.90;;;-141.84;80.11;19781.31;5073935;28;20228;-56
2023/03/24 04:36:27;;;;;;;5.90;4.03;;;11.90;99.90;;;-141.84;80.34;19779.28;5073302;28;20228;-58
2023/03/24 04:39:00;;;;;;;5.60;3.87;;;11.90;99.90;;;-141.84;80.59;19758.97;5074034;28;20216;-55
2023/03/24 04:41:31;;;;;;;5.13;3.90;;;11.90;99.90;;;-141.84;80.27;19767.09;5073352;28;20220;-58
2023/03/24 04:44:00;;;;;;;4.27;3.87;;;11.90;99.90;;;-141.84;80.06;19777.25;5074096;28;20201;-55
2023/03/24 04:46:28;;;;;;;3.83;3.40;;;11.90;99.90;;;-141.84;80.12;19781.31;5074120;28;20208;-58
2023/03/24 04:48:58;;;;;;;3.90;3.60;;;11.90;99.90;;;-141.84;80.05;19817.91;5075545;28;20575;-57
2023/03/24 04:51:27;;;;;;;4.53;3.67;;;11.90;99.90;;;-141.84;79.91;19756.94;5073151;28;20223;-56
2023/03/24 04:53:55;;;;;;;4.47;4.07;;;11.90;99.90;;;-141.84;79.10;19756.94;5073265;28;20267;-58
2023/03/24 04:56:34;;;;;;;4.20;3.80;;;12.00;99.90;;;-141.84;79.28;19791.47;5073259;28;20224;-58
2023/03/24 04:59:03;;;;;;;4.37;3.60;;;11.90;99.90;;;-141.84;79.79;19791.47;5073432;28;20188;-57
2023/03/24 05:01:36;;;;;;;4.50;4.10;;;11.90;99.90;;;-141.84;80.25;19748.81;5073725;28;20209;-57
2023/03/24 05:04:07;;;;;;;4.30;3.90;;;11.90;99.90;;;-141.84;79.65;19746.78;5073230;28;20230;-57
2023/03/24 05:06:35;;;;;;;3.97;3.60;;;11.90;99.90;;;-141.84;78.02;19832.13;5072687;28;20683;-54
2023/03/24 05:09:04;;;;;;;4.73;3.57;;;12.00;99.90;;;-141.84;77.42;19809.78;5073273;28;20625;-57
2023/03/24 05:11:32;;;;;;;7.03;3.40;;;12.00;99.90;;;-141.84;77.38;19826.03;5053300;28;20221;-55
2023/03/24 05:14:00;;;;;;;3.77;3.47;;;12.10;99.90;;;-141.84;78.18;19793.50;5053205;28;20222;-53
2023/03/24 05:16:29;;;;;;;4.87;3.40;;;12.10;99.90;;;-141.84;77.25;19828.06;5053663;28;20198;-56
2023/03/24 05:18:57;;;;;;;4.13;3.30;;;12.10;99.90;;;-141.84;76.76;19838.22;5052989;28;20290;-55
2023/03/24 05:21:26;;;;;;;3.93;3.33;;;12.20;99.90;;;-141.84;76.76;19807.75;5052251;28;20245;-56
2023/03/24 05:23:55;;;;;;;3.80;3.33;;;12.20;99.90;;;-141.84;76.21;19838.22;5053621;28;20225;-56
2023/03/24 05:26:23;;;;;;;3.60;3.30;;;12.20;99.90;;;-141.84;75.09;19834.16;5069145;28;20228;-55
2023/03/24 05:28:51;;;;;;;3.90;3.50;;;12.30;99.90;;;-141.84;75.47;19862.63;5073201;28;20256;-55
2023/03/24 05:31:19;;;;;;;4.00;3.60;;;12.30;99.90;;;-141.84;75.55;19899.19;5072502;28;20231;-55
2023/03/24 05:33:48;;;;;;;4.20;3.37;;;12.30;99.90;;;-141.84;76.19;19826.03;5072468;28;20282;-58
2023/03/24 05:36:16;;;;;;;3.70;3.40;;;12.30;99.90;;;-141.84;76.42;19834.16;5071697;28;20616;-57
2023/03/24 05:38:46;;;;;;;3.57;3.20;;;12.30;99.90;;;-141.84;75.73;19842.28;5072719;28;20700;-56
2023/03/24 05:41:14;;;;;;;3.73;3.43;;;12.30;99.90;;;-141.84;75.92;19840.25;5072508;28;20211;-57
2023/03/24 05:43:43;;;;;;;4.10;3.70;;;12.30;99.90;;;-141.84;76.10;19842.28;5068471;28;20435;-60
2023/03/24 05:46:11;;;;;;;4.00;3.60;;;12.30;99.90;;;-141.84;76.34;19821.97;5052187;28;20488;-58
2023/03/24 05:48:39;;;;;;;4.43;3.70;;;12.20;99.90;;;-141.84;75.93;19840.25;5085728;28;20220;-57
2023/03/24 05:51:08;;;;;;;4.10;3.70;;;12.30;99.90;;;-141.84;75.66;19854.50;5092365;28;20224;-57
2023/03/24 05:53:36;;;;;;;4.13;3.53;;;12.30;99.90;;;-141.84;74.96;19840.25;5092434;28;20251;-57
2023/03/24 05:56:10;;;;;;;3.97;3.50;;;12.40;99.90;;;-141.84;73.34;19897.16;5092064;28;20663;-58
2023/03/24 05:58:39;;;;;;;3.83;3.50;;;12.50;99.90;;;-141.84;73.54;19876.84;5093096;28;20270;-58
2023/03/24 06:01:09;;;;;;;4.30;3.30;;;12.50;99.90;;;-141.84;73.05;19903.25;5078471;28;20221;-57
2023/03/24 06:03:39;;;;;;;4.07;3.50;;;12.60;99.90;;;-141.84;72.50;19956.09;5072126;28;20227;-58
2023/03/24 06:06:13;;;;;;;3.78;3.45;;;12.70;99.90;;;-141.84;72.14;19907.31;5071903;28;20227;-57
2023/03/24 06:08:43;;;;;;;3.40;3.10;;;12.70;99.90;;;-141.84;72.22;19915.47;5072059;28;20227;-57
2023/03/24 06:11:13;;;;;;;3.53;3.23;;;12.80;99.90;;;-141.84;72.59;19903.25;5071889;28;20189;-58
2023/03/24 06:13:41;;;;;;;4.33;3.90;;;12.70;99.90;;;-141.84;72.07;19927.66;5072300;28;20227;-60
2023/03/24 06:16:10;;;;;;;3.57;3.20;;;12.70;99.90;;;-141.84;71.87;19929.69;5071665;28;20742;-56
2023/03/24 06:18:41;;;;;;;5.77;3.70;;;12.80;99.90;;;-141.84;70.80;19976.44;5071882;28;20228;-57
2023/03/24 06:21:09;;;;;;;4.80;3.30;;;12.90;99.90;;;-141.84;71.24;19960.16;5071251;28;20220;-58
2023/03/24 06:23:37;;;;;;;5.53;3.47;;;12.90;99.90;;;-141.84;70.30;19950.00;5071665;28;20227;-58
2023/03/24 06:26:10;;;;;;;4.10;3.67;;;13.00;99.90;;;-141.84;70.75;19986.59;5071739;28;20228;-57
2023/03/24 06:28:41;;;;;;;4.00;3.57;;;13.00;99.90;;;-141.84;70.66;19970.34;5071656;28;20195;-55
2023/03/24 06:31:13;;;;;;;3.87;3.43;;;13.00;99.90;;;-141.84;70.39;20015.03;5071454;28;20277;-57
2023/03/24 06:33:42;;;;;;;3.90;3.50;;;13.00;99.90;;;-141.84;69.42;20025.22;5071323;28;20239;-55
2023/03/24 06:36:12;;;;;;;3.70;3.30;;;13.10;99.90;;;-141.84;69.61;19994.72;5071185;28;20228;-56
2023/03/24 06:38:41;;;;;;;4.13;3.73;;;13.20;99.90;;;-141.84;68.54;20021.16;5071484;28;20232;-55
2023/03/24 06:41:10;;;;;;;3.45;3.15;;;13.30;99.90;;;-141.84;68.73;20043.50;5059152;28;20205;-55
2023/03/24 06:43:40;;;;;;;4.10;2.90;;;13.30;99.90;;;-141.84;68.56;20029.28;5068484;28;20197;-59
2023/03/24 06:46:08;;;;;;;4.63;3.30;;;13.30;99.90;;;-141.84;68.94;20023.19;5071285;28;20233;-59
2023/03/24 06:48:37;;;;;;;4.60;3.20;;;13.30;99.90;;;-141.84;68.96;20013.00;5086738;28;20318;-54
2023/03/24 06:51:07;;;;;;;3.77;3.33;;;13.30;99.90;;;-141.84;69.02;20031.31;5091183;28;20235;-56
2023/03/24 06:53:36;;;;;;;3.67;3.17;;;13.30;99.90;;;-141.84;69.03;19994.72;5091135;28;20242;-56
2023/03/24 06:56:06;;;;;;;3.73;3.33;;;13.30;99.90;;;-141.84;69.43;20004.88;5091171;28;20243;-57
2023/03/24 06:58:34;;;;;;;3.58;3.15;;;13.30;99.90;;;-141.84;69.15;20000.81;5091827;28;20210;-55
2023/03/24 07:01:04;;;;;;;4.28;3.58;;;13.30;99.90;;;-141.84;68.35;20037.41;5078504;28;20559;-56
2023/03/24 07:03:32;;;;;;;3.70;3.40;;;13.40;99.90;;;-141.84;68.93;20021.16;5070902;28;20235;-57
2023/03/24 07:06:00;;;;;;;3.50;3.20;;;13.40;99.90;;;-141.84;69.27;20013.00;5070664;28;20220;-56
2023/03/24 07:08:29;;;;;;;4.90;3.65;;;13.40;99.90;;;-141.84;69.08;20008.94;5070714;28;20224;-54
2023/03/24 07:11:07;;;;;;;3.90;3.50;;;13.40;99.90;;;-141.84;68.39;19998.78;5070879;28;20188;-55
2023/03/24 07:13:35;;;;;;;5.10;3.42;;;13.50;99.90;;;-141.84;67.92;20067.88;5071433;28;20622;-57
2023/03/24 07:16:06;;;;;;;3.53;3.10;;;13.50;99.90;;;-141.84;67.80;20063.81;5070708;28;20307;-55
2023/03/24 07:18:35;;;;;;;3.40;3.10;;;13.60;99.90;;;-141.84;68.04;20025.22;5070413;28;20802;-57
2023/03/24 07:21:03;;;;;;;3.55;3.22;;;13.60;99.90;;;-141.84;67.80;20076.03;5070206;28;20258;-58
2023/03/24 07:23:31;;;;;;;4.30;3.35;;;13.70;99.90;;;-141.84;67.12;20092.28;5070727;28;20303;-56
2023/03/24 07:26:00;;;;;;;3.83;3.40;;;13.80;99.90;;;-141.84;67.84;20067.88;5070697;28;20197;-55
2023/03/24 07:28:28;;;;;;;3.45;3.15;;;13.80;99.90;;;-141.84;67.24;20090.25;5070736;28;20227;-59
2023/03/24 07:30:58;;;;;;;3.95;3.40;;;13.90;99.90;;;-141.84;67.14;20084.16;5070371;28;20640;-57
2023/03/24 07:33:27;;;;;;;4.25;3.15;;;14.00;99.90;;;-141.84;67.07;20147.16;5070288;28;20282;-57
2023/03/24 07:35:57;;;;;;;4.15;3.33;;;14.00;99.90;;;-141.84;65.93;20126.84;5070093;28;20267;-57
2023/03/24 07:38:25;;;;;;;3.70;3.13;;;14.10;99.90;;;-141.84;66.11;20143.09;5070394;28;20233;-56
2023/03/24 07:40:54;;;;;;;4.10;2.90;;;14.20;99.90;;;-141.84;66.35;20137.00;5070644;28;20242;-57
2023/03/24 07:43:22;;;;;;;3.45;3.15;;;14.30;99.90;;;-141.84;66.55;20165.44;5070444;28;20592;-57
2023/03/24 07:45:50;;;;;;;3.33;3.03;;;14.30;99.90;;;-141.84;66.33;20187.81;5070174;28;20228;-56
2023/03/24 07:48:19;;;;;;;3.35;3.05;;;14.40;99.90;;;-141.84;65.95;20181.72;5084049;28;20251;-55
2023/03/24 07:50:48;;;;;;;3.40;2.83;;;14.40;99.90;;;-141.84;64.76;20208.13;5090419;28;20219;-57
2023/03/24 07:53:18;;;;;;;3.20;2.90;;;14.50;99.90;;;-141.84;65.30;20220.34;5089822;28;20693;-57
2023/03/24 07:55:47;;;;;;;3.33;3.00;;;14.50;99.90;;;-141.84;65.91;20191.88;5090898;28;20302;-57
2023/03/24 07:58:16;;;;;;;3.55;3.10;;;14.50;99.90;;;-141.84;65.90;20177.66;5090219;28;20232;-57
2023/03/24 08:00:45;;;;;;;3.40;3.03;;;14.50;99.90;;;-141.84;64.97;20210.16;5081150;28;20251;-55
2023/03/24 08:03:14;;;;;;;3.70;3.30;;;14.50;99.90;;;-141.84;64.85;20212.19;5070805;28;20220;-56
2023/03/24 08:05:44;;;;;;;4.47;3.25;;;14.60;99.90;;;-141.84;64.99;20250.81;5070109;28;20228;-56
2023/03/24 08:08:14;;;;;;;3.95;2.90;;;14.70;99.90;;;-141.84;64.95;20193.91;5069875;28;20186;-58
2023/03/24 08:10:44;;;;;;;2.90;2.70;;;14.70;99.90;;;-141.84;65.57;20187.81;5070961;28;20213;-57
2023/03/24 08:13:13;;;;;;;3.33;3.03;;;14.60;99.90;;;-141.84;66.20;20195.94;5070240;28;20242;-57
2023/03/24 08:15:41;;;;;;;4.13;3.00;;;14.60;99.90;;;-141.84;65.85;20214.22;5069944;28;20232;-58
2023/03/24 08:18:09;;;;;;;3.38;3.08;;;14.60;99.90;;;-141.84;65.92;20204.06;5070460;28;20225;-57
2023/03/24 08:20:38;;;;;;;3.38;3.08;;;14.60;99.90;;;-141.84;65.24;20232.53;5070058;28;20308;-57
2023/03/24 08:23:07;;;;;;;4.07;2.72;;;14.70;99.90;;;-141.84;64.77;20187.81;5069689;28;20240;-56
2023/03/24 08:25:37;;;;;;;2.85;2.63;;;14.80;99.90;;;-141.84;64.31;20216.25;5070311;28;20200;-57
2023/03/24 08:28:06;;;;;;;3.50;3.20;;;14.80;99.90;;;-141.84;64.37;20285.38;5069783;28;20220;-55
2023/03/24 08:30:34;;;;;;;4.05;3.13;;;14.90;99.90;;;-141.84;63.68;20297.56;5069754;28;20623;-56
2023/03/24 08:33:04;;;;;;;3.53;2.85;;;14.90;99.90;;;-141.84;63.28;20313.84;5060776;28;20312;-58
2023/03/24 08:35:37;;;;;;;3.28;2.45;;;15.10;99.90;;;-141.84;62.98;20338.22;5050486;28;20625;-56
2023/03/24 08:38:07;;;;;;;2.75;2.55;;;15.30;99.90;;;-141.84;62.21;20395.13;5067393;28;20185;-55
2023/03/24 08:40:40;;;;;;;2.85;2.20;;;15.50;99.90;;;-141.84;62.30;20421.56;5069322;28;20208;-55
2023/03/24 08:43:14;;;;;;;2.20;2.00;;;15.60;99.90;;;-141.84;61.61;20431.72;5069361;28;20573;-51
2023/03/24 08:45:43;;;;;;;4.47;2.40;;;15.70;99.90;;;-141.84;60.91;20407.34;5069466;28;20222;-50
2023/03/24 08:48:11;;;;;;;2.45;2.25;;;15.80;99.90;;;-141.84;61.34;20433.75;5081832;28;20215;-51
2023/03/24 08:50:42;;;;;;;3.67;2.22;;;15.80;99.90;;;-141.84;61.05;20407.34;5089427;28;20592;-52
2023/03/24 08:53:11;;;;;;;2.20;2.00;;;15.80;99.90;;;-141.84;60.40;20439.84;5089548;28;20263;-53
2023/03/24 08:55:42;;;;;;;2.10;1.90;;;15.90;99.90;;;-141.84;60.51;20429.69;5084028;28;20591;-55
2023/03/24 08:58:14;;;;;;;1.73;1.63;;;15.90;99.90;;;-141.84;60.15;20433.75;5069335;28;20307;-55
2023/03/24 09:00:45;;;;;;;2.42;1.70;;;16.00;99.90;;;-141.84;59.30;20452.06;5068907;28;20226;-53
2023/03/24 09:03:17;;;;;;;1.90;1.80;;;16.00;99.90;;;-141.84;58.85;20541.50;5069439;28;20251;-52
2023/03/24 09:05:46;;;;;;;1.75;1.65;;;16.20;99.90;;;-141.84;58.14;20553.69;5066485;28;20221;-54
2023/03/24 09:08:18;;;;;;;1.70;1.60;;;16.40;99.90;;;-141.84;57.76;20600.44;5069242;28;20239;-53
2023/03/24 09:10:47;;;;;;;1.70;1.55;;;16.60;99.90;;;-141.84;57.26;20592.31;5065017;28;20297;-54
2023/03/24 09:13:17;;;;;;;1.90;1.70;;;16.70;99.90;;;-141.84;58.08;20490.66;5072272;28;20229;-53
2023/03/24 09:15:50;;;;;;;1.88;1.60;;;16.60;99.90;;;-141.84;58.56;20515.06;5072692;28;20439;-51
2023/03/24 09:18:21;;;;;;;4.55;1.80;;;16.40;99.90;;;-141.84;59.26;20529.28;5071020;28;20220;-54
2023/03/24 09:20:50;;;;;;;1.75;1.50;;;16.30;99.90;;;-141.84;58.59;20517.09;5070818;28;20225;-54
2023/03/24 09:23:20;;;;;;;1.50;1.40;;;16.40;99.90;;;-141.84;59.13;20525.22;5071377;28;20224;-54
2023/03/24 09:25:51;;;;;;;2.03;1.70;;;16.40;99.90;;;-141.84;59.34;20521.16;5073126;28;20228;-50
2023/03/24 09:28:19;;;;;;;2.17;1.75;;;16.30;99.90;;;-141.84;59.72;20502.88;5071401;28;20220;-53
2023/03/24 09:30:48;;;;;;;1.70;1.58;;;16.30;99.90;;;-141.84;58.94;20500.84;5072517;28;20227;-53
2023/03/24 09:33:17;;;;;;;1.77;1.60;;;16.40;99.90;;;-141.84;58.95;20549.63;5068341;28;20409;-53
2023/03/24 09:35:45;;;;;;;1.73;1.63;;;16.30;99.90;;;-141.84;58.61;20565.88;5072125;28;20228;-54
2023/03/24 09:38:13;;;;;;;1.73;1.50;;;16.50;99.90;;;-141.84;57.65;20569.94;5072384;28;20219;-57
2023/03/24 09:40:42;;;;;;;1.60;1.50;;;16.70;99.90;;;-141.84;57.81;20565.88;5072694;28;20262;-58
2023/03/24 09:43:27;;;;;;;1.90;1.70;;;16.70;99.90;;;-141.84;57.08;20584.19;5073021;28;20227;-56
2023/03/24 09:46:01;;;;;;;1.75;1.65;;;16.70;99.90;;;-141.84;57.29;20600.44;5071728;28;20575;-58
2023/03/24 09:48:38;;;;;;;2.25;1.80;;;16.90;99.90;;;-141.84;56.44;20675.66;5078012;28;20225;-56
2023/03/24 09:51:10;;;;;;;1.60;1.50;;;17.00;99.90;;;-141.84;55.00;20761.03;5070674;28;20261;-51
2023/03/24 09:53:50;;;;;;;1.73;1.63;;;17.20;99.90;;;-141.84;54.93;20805.75;5070518;28;20219;-53
2023/03/24 09:56:22;;;;;;;1.30;1.17;;;17.60;99.90;;;-141.84;53.11;20840.31;5071011;28;20235;-52
2023/03/24 09:59:03;;;;;;;1.92;1.52;;;17.90;99.90;;;-141.84;53.51;20807.78;5072149;28;20207;-51
2023/03/24 10:01:31;;;;;;;1.70;1.55;;;17.90;99.90;;;-141.84;54.04;20750.88;5073827;28;20718;-55
2023/03/24 10:04:01;;;;;;;2.42;1.60;;;17.70;99.90;;;-141.84;55.05;20714.28;5067946;28;20217;-53
2023/03/24 10:06:37;;;;;;;1.90;1.70;;;17.60;99.90;;;-141.84;55.13;20671.59;5067265;28;20253;-52
2023/03/24 10:09:22;;;;;;;1.60;1.50;;;17.40;99.90;;;-141.84;55.27;20700.03;5070691;28;20265;-54
2023/03/24 10:12:18;;;;;;;1.67;1.58;;;17.40;99.90;;;-141.84;55.80;20643.13;5048742;28;20247;-54
2023/03/24 10:15:04;;;;;;;1.58;1.48;;;17.20;99.90;;;-141.84;56.25;20614.66;5049258;28;20225;-55
2023/03/24 10:17:46;;;;;;;1.63;1.52;;;17.10;99.90;;;-141.84;55.72;20669.56;5048633;28;20232;-53
2023/03/24 10:20:34;;;;;;;1.98;1.70;;;17.00;99.90;;;-141.84;56.15;20687.84;5048639;28;20196;-54
2023/03/24 10:23:24;;;;;;;1.55;1.45;;;17.00;99.90;;;-141.84;55.42;20659.38;5047284;28;20233;-55
2023/03/24 10:26:04;;;;;;;2.42;1.80;;;17.10;99.90;;;-141.84;56.09;20687.84;5051313;28;20206;-55
2023/03/24 10:28:41;;;;;;;1.70;1.60;;;17.10;99.90;;;-141.84;55.99;20673.63;5059900;28;20216;-55
2023/03/24 10:31:16;;;;;;;1.90;1.70;;;17.20;99.90;;;-141.84;54.38;20769.16;5068280;28;20314;-55